createdAt,value
2019-02-21T00:00:48.324Z,1007.20
2019-02-21T00:01:48.318Z,1007.27
2019-02-21T00:02:48.364Z,1007.22
2019-02-21T00:03:48.385Z,1007.29
2019-02-21T00:04:48.394Z,1007.27
2019-02-21T00:05:48.423Z,1007.27
2019-02-21T00:06:48.447Z,1007.32
2019-02-21T00:07:48.474Z,1007.35
2019-02-21T00:08:48.499Z,1007.34
2019-02-21T00:09:48.526Z,1007.35
2019-02-21T00:10:48.549Z,1007.40
2019-02-21T00:11:48.574Z,1007.34
2019-02-21T00:12:48.600Z,1007.35
2019-02-21T00:13:48.627Z,1007.35
2019-02-21T00:14:48.657Z,1007.35
2019-02-21T00:15:48.679Z,1007.35
2019-02-21T00:16:48.704Z,1007.38
2019-02-21T00:17:48.729Z,1007.34
2019-02-21T00:18:48.807Z,1007.38
2019-02-21T00:19:48.784Z,1007.38
2019-02-21T00:20:48.807Z,1007.33
2019-02-21T00:21:48.834Z,1007.37
2019-02-21T00:22:48.908Z,1007.36
2019-02-21T00:23:48.883Z,1007.34
2019-02-21T00:24:48.910Z,1007.36
2019-02-21T00:25:48.935Z,1007.32
2019-02-21T00:26:48.963Z,1007.39
2019-02-21T00:27:48.992Z,1007.41
2019-02-21T00:28:49.011Z,1007.39
2019-02-21T00:29:49.050Z,1007.39
2019-02-21T00:30:49.064Z,1007.41
2019-02-21T00:31:49.092Z,1007.40
2019-02-21T00:32:49.116Z,1007.41
2019-02-21T00:33:49.140Z,1007.44
2019-02-21T00:34:49.166Z,1007.42
2019-02-21T00:35:49.191Z,1007.44
2019-02-21T00:36:49.218Z,1007.41
2019-02-21T00:37:49.243Z,1007.45
2019-02-21T00:38:49.273Z,1007.44
2019-02-21T00:39:49.343Z,1007.43
2019-02-21T00:40:49.344Z,1007.41
2019-02-21T00:41:49.345Z,1007.43
2019-02-21T00:42:49.370Z,1007.41
2019-02-21T00:43:49.397Z,1007.43
2019-02-21T00:44:49.422Z,1007.43
2019-02-21T00:45:49.449Z,1007.42
2019-02-21T00:47:49.497Z,1007.41
2019-02-21T00:48:49.525Z,1007.44
2019-02-21T00:49:49.548Z,1007.44
2019-02-21T00:51:49.599Z,1007.45
2019-02-21T00:52:49.627Z,1007.43
2019-02-21T00:55:49.705Z,1007.51
2019-02-21T00:56:49.728Z,1007.48
2019-02-21T00:57:49.756Z,1007.51
2019-02-21T00:58:49.779Z,1007.46
2019-02-21T00:59:50.893Z,1007.44
2019-02-21T01:00:49.835Z,1007.47
2019-02-21T01:04:25.741Z,1007.53
2019-02-21T01:05:25.767Z,1007.48
2019-02-21T01:06:25.792Z,1007.50
2019-02-21T01:07:25.818Z,1007.50
2019-02-21T01:08:25.845Z,1007.50
2019-02-21T01:09:25.909Z,1007.51
2019-02-21T01:10:25.893Z,1007.49
2019-02-21T01:11:25.919Z,1007.51
2019-02-21T01:12:25.943Z,1007.57
2019-02-21T01:13:25.968Z,1007.56
2019-02-21T01:14:26.007Z,1007.60
2019-02-21T01:15:26.026Z,1007.59
2019-02-21T01:16:26.046Z,1007.56
2019-02-21T01:17:26.070Z,1007.54
2019-02-21T01:18:26.095Z,1007.56
2019-02-21T01:19:26.123Z,1007.57
2019-02-21T01:20:26.147Z,1007.52
2019-02-21T01:21:26.171Z,1007.59
2019-02-21T01:22:26.198Z,1007.55
2019-02-21T01:23:26.223Z,1007.62
2019-02-21T01:24:26.249Z,1007.60
2019-02-21T01:25:26.274Z,1007.61
2019-02-21T01:26:26.300Z,1007.62
2019-02-21T01:27:26.325Z,1007.63
2019-02-21T01:28:26.353Z,1007.66
2019-02-21T01:29:26.374Z,1007.65
2019-02-21T01:30:26.400Z,1007.67
2019-02-21T01:31:26.427Z,1007.70
2019-02-21T01:32:26.449Z,1007.68
2019-02-21T01:33:26.486Z,1007.67
2019-02-21T01:34:26.502Z,1007.64
2019-02-21T01:35:26.527Z,1007.66
2019-02-21T01:36:26.552Z,1007.68
2019-02-21T01:37:26.578Z,1007.67
2019-02-21T01:38:26.602Z,1007.69
2019-02-21T01:39:26.627Z,1007.65
2019-02-21T01:40:26.652Z,1007.68
2019-02-21T01:41:26.677Z,1007.67
2019-02-21T01:42:26.703Z,1007.70
2019-02-21T01:43:26.730Z,1007.70
2019-02-21T01:44:26.755Z,1007.66
2019-02-21T01:45:26.981Z,1007.67
2019-02-21T01:46:26.806Z,1007.66
2019-02-21T01:47:26.831Z,1007.66
2019-02-21T01:48:26.854Z,1007.66
2019-02-21T01:49:26.891Z,1007.65
2019-02-21T01:50:26.906Z,1007.65
2019-02-21T01:51:26.934Z,1007.68
2019-02-21T01:52:26.957Z,1007.63
2019-02-21T01:53:26.985Z,1007.67
2019-02-21T01:54:27.008Z,1007.65
2019-02-21T01:55:27.033Z,1007.71
2019-02-21T01:56:27.059Z,1007.71
2019-02-21T01:57:27.083Z,1007.71
2019-02-21T01:58:27.109Z,1007.68
2019-02-21T01:59:27.133Z,1007.70
2019-02-21T02:01:27.184Z,1007.68
2019-02-21T02:02:27.227Z,1007.67
2019-02-21T02:03:27.235Z,1007.68
2019-02-21T02:04:27.260Z,1007.68
2019-02-21T02:05:27.338Z,1007.65
2019-02-21T02:06:27.311Z,1007.67
2019-02-21T02:07:27.336Z,1007.65
2019-02-21T02:08:27.369Z,1007.68
2019-02-21T02:09:27.588Z,1007.71
2019-02-21T02:10:27.411Z,1007.70
2019-02-21T02:11:27.443Z,1007.69
2019-02-21T02:12:27.462Z,1007.71
2019-02-21T02:13:27.487Z,1007.69
2019-02-21T02:14:27.512Z,1007.62
2019-02-21T02:15:27.743Z,1007.61
2019-02-21T02:16:27.561Z,1007.65
2019-02-21T02:17:27.789Z,1007.59
2019-02-21T02:18:27.613Z,1007.60
2019-02-21T02:19:27.637Z,1007.57
2019-02-21T02:20:27.664Z,1007.59
2019-02-21T02:21:27.688Z,1007.58
2019-02-21T02:22:27.714Z,1007.62
2019-02-21T02:23:27.740Z,1007.62
2019-02-21T02:24:27.765Z,1007.57
2019-02-21T02:25:27.790Z,1007.60
2019-02-21T02:26:27.814Z,1007.54
2019-02-21T02:27:27.840Z,1007.50
2019-02-21T02:28:27.864Z,1007.52
2019-02-21T02:29:27.890Z,1007.50
2019-02-21T02:30:27.926Z,1007.45
2019-02-21T02:31:27.958Z,1007.49
2019-02-21T02:32:27.966Z,1007.54
2019-02-21T02:33:27.996Z,1007.50
2019-02-21T02:34:28.016Z,1007.48
2019-02-21T02:35:28.254Z,1007.51
2019-02-21T02:36:28.066Z,1007.54
2019-02-21T02:37:28.090Z,1007.52
2019-02-21T02:38:28.116Z,1007.49
2019-02-21T02:39:28.142Z,1007.52
2019-02-21T02:40:28.167Z,1007.56
2019-02-21T02:41:28.191Z,1007.53
2019-02-21T02:42:28.218Z,1007.61
2019-02-21T02:43:28.244Z,1007.58
2019-02-21T02:44:28.266Z,1007.57
2019-02-21T02:45:28.291Z,1007.59
2019-02-21T02:46:28.317Z,1007.56
2019-02-21T02:47:28.342Z,1007.55
2019-02-21T02:48:28.367Z,1007.57
2019-02-21T02:49:28.401Z,1007.57
2019-02-21T02:50:28.419Z,1007.60
2019-02-21T02:51:28.442Z,1007.61
2019-02-21T02:52:28.465Z,1007.58
2019-02-21T02:53:28.491Z,1007.61
2019-02-21T02:54:28.517Z,1007.61
2019-02-21T02:55:28.541Z,1007.61
2019-02-21T02:56:28.580Z,1007.62
2019-02-21T02:57:28.595Z,1007.63
2019-02-21T02:58:28.618Z,1007.61
2019-02-21T02:59:40.066Z,1007.62
2019-02-21T03:00:28.669Z,1007.63
2019-02-21T03:01:34.869Z,1007.61
2019-02-21T03:02:28.719Z,1007.68
2019-02-21T03:03:28.756Z,1007.64
2019-02-21T03:04:29.046Z,1007.66
2019-02-21T03:05:28.798Z,1007.69
2019-02-21T03:06:28.817Z,1007.64
2019-02-21T03:07:28.842Z,1007.70
2019-02-21T03:08:28.865Z,1007.65
2019-02-21T03:09:28.897Z,1007.68
2019-02-21T03:10:28.916Z,1007.68
2019-02-21T03:11:28.941Z,1007.73
2019-02-21T03:12:28.998Z,1007.74
2019-02-21T03:13:28.998Z,1007.76
2019-02-21T03:14:29.018Z,1007.78
2019-02-21T03:15:29.128Z,1007.77
2019-02-21T03:16:29.065Z,1007.77
2019-02-21T03:17:29.091Z,1007.76
2019-02-21T03:18:29.116Z,1007.77
2019-02-21T03:19:29.144Z,1007.79
2019-02-21T03:20:29.166Z,1007.72
2019-02-21T03:21:29.190Z,1007.77
2019-02-21T03:22:29.215Z,1007.73
2019-02-21T03:23:29.242Z,1007.74
2019-02-21T03:24:29.265Z,1007.78
2019-02-21T03:25:29.291Z,1007.73
2019-02-21T03:26:29.314Z,1007.74
2019-02-21T03:27:29.342Z,1007.78
2019-02-21T03:28:29.363Z,1007.76
2019-02-21T03:29:29.391Z,1007.80
2019-02-21T03:30:29.417Z,1007.81
2019-02-21T03:31:29.453Z,1007.81
2019-02-21T03:32:29.465Z,1007.84
2019-02-21T03:33:29.493Z,1007.83
2019-02-21T03:34:29.522Z,1007.82
2019-02-21T03:35:29.543Z,1007.82
2019-02-21T03:36:29.565Z,1007.83
2019-02-21T03:37:29.589Z,1007.87
2019-02-21T03:38:29.629Z,1007.84
2019-02-21T03:39:29.639Z,1007.81
2019-02-21T03:40:29.672Z,1007.83
2019-02-21T03:41:29.687Z,1007.84
2019-02-21T03:42:29.735Z,1007.86
2019-02-21T03:43:29.744Z,1007.84
2019-02-21T03:44:29.762Z,1007.88
2019-02-21T03:45:29.790Z,1007.83
2019-02-21T03:46:29.811Z,1007.85
2019-02-21T03:47:29.837Z,1007.83
2019-02-21T03:48:29.867Z,1007.83
2019-02-21T03:49:29.886Z,1007.89
2019-02-21T03:50:29.910Z,1007.88
2019-02-21T03:51:29.936Z,1007.92
2019-02-21T03:52:29.959Z,1007.91
2019-02-21T03:53:29.986Z,1007.89
2019-02-21T03:54:30.025Z,1007.88
2019-02-21T03:55:30.035Z,1007.88
2019-02-21T03:56:30.058Z,1007.87
2019-02-21T03:57:30.083Z,1007.91
2019-02-21T03:58:30.111Z,1007.84
2019-02-21T03:59:30.133Z,1007.92
2019-02-21T04:00:30.159Z,1007.91
2019-02-21T04:01:30.198Z,1007.92
2019-02-21T04:02:30.212Z,1007.94
2019-02-21T04:03:31.960Z,1007.94
2019-02-21T04:04:30.256Z,1007.94
2019-02-21T04:05:30.307Z,1007.92
2019-02-21T04:06:30.371Z,1007.94
2019-02-21T04:07:30.333Z,1007.94
2019-02-21T04:08:30.358Z,1008.00
2019-02-21T04:09:30.381Z,1008.03
2019-02-21T04:10:30.405Z,1007.98
2019-02-21T04:11:30.430Z,1007.98
2019-02-21T04:12:30.454Z,1007.97
2019-02-21T04:13:30.491Z,1007.94
2019-02-21T04:14:30.504Z,1007.94
2019-02-21T04:15:30.532Z,1007.99
2019-02-21T04:16:30.555Z,1007.95
2019-02-21T04:17:30.579Z,1007.99
2019-02-21T04:18:30.602Z,1008.00
2019-02-21T04:19:30.629Z,1008.02
2019-02-21T04:20:30.656Z,1007.97
2019-02-21T04:21:30.677Z,1007.98
2019-02-21T04:22:30.702Z,1007.97
2019-02-21T04:23:30.742Z,1008.00
2019-02-21T04:24:30.751Z,1008.00
2019-02-21T04:25:30.775Z,1007.95
2019-02-21T04:26:30.800Z,1007.92
2019-02-21T04:27:30.830Z,1007.95
2019-02-21T04:28:30.849Z,1007.97
2019-02-21T04:29:30.874Z,1007.92
2019-02-21T04:30:30.899Z,1007.91
2019-02-21T04:31:30.924Z,1007.93
2019-02-21T04:32:30.947Z,1007.97
2019-02-21T04:33:30.972Z,1007.95
2019-02-21T04:34:30.996Z,1007.99
2019-02-21T04:35:31.022Z,1007.97
2019-02-21T04:36:31.047Z,1007.99
2019-02-21T04:37:31.074Z,1008.00
2019-02-21T04:38:31.099Z,1007.99
2019-02-21T04:39:31.121Z,1007.95
2019-02-21T04:40:31.145Z,1007.94
2019-02-21T04:41:31.170Z,1007.92
2019-02-21T04:42:31.203Z,1007.93
2019-02-21T04:43:31.221Z,1007.91
2019-02-21T04:44:31.242Z,1007.93
2019-02-21T04:45:31.267Z,1007.88
2019-02-21T04:46:31.294Z,1007.89
2019-02-21T04:47:31.317Z,1007.93
2019-02-21T04:48:31.342Z,1007.95
2019-02-21T04:49:31.366Z,1007.99
2019-02-21T04:50:31.391Z,1007.99
2019-02-21T04:51:31.414Z,1007.96
2019-02-21T04:52:31.438Z,1007.98
2019-02-21T04:53:31.469Z,1007.94
2019-02-21T04:54:31.487Z,1007.98
2019-02-21T04:55:31.532Z,1007.88
2019-02-21T04:56:31.558Z,1007.90
2019-02-21T04:57:31.563Z,1007.93
2019-02-21T04:58:31.587Z,1007.93
2019-02-21T04:59:31.610Z,1007.91
2019-02-21T05:00:31.633Z,1007.98
2019-02-21T05:01:31.670Z,1007.98
2019-02-21T05:02:31.684Z,1007.99
2019-02-21T05:03:31.709Z,1008.00
2019-02-21T05:04:31.733Z,1008.03
2019-02-21T05:05:31.761Z,1008.01
2019-02-21T05:06:31.805Z,1008.00
2019-02-21T05:07:31.806Z,1008.04
2019-02-21T05:08:31.831Z,1008.06
2019-02-21T05:09:31.855Z,1008.04
2019-02-21T05:10:31.883Z,1008.04
2019-02-21T05:11:31.911Z,1008.03
2019-02-21T05:12:31.936Z,1008.10
2019-02-21T05:13:33.790Z,1008.02
2019-02-21T05:14:31.979Z,1008.03
2019-02-21T05:15:32.004Z,1008.05
2019-02-21T05:16:32.029Z,1008.09
2019-02-21T05:17:32.053Z,1008.08
2019-02-21T05:18:32.086Z,1008.10
2019-02-21T05:19:32.102Z,1008.08
2019-02-21T05:20:32.124Z,1008.08
2019-02-21T05:21:32.149Z,1008.14
2019-02-21T05:22:32.178Z,1008.10
2019-02-21T05:23:32.199Z,1008.14
2019-02-21T05:24:32.223Z,1008.11
2019-02-21T05:25:32.248Z,1008.09
2019-02-21T05:26:32.273Z,1008.10
2019-02-21T05:27:32.296Z,1008.13
2019-02-21T05:28:32.320Z,1008.11
2019-02-21T05:29:32.346Z,1008.16
2019-02-21T05:30:32.370Z,1008.13
2019-02-21T05:31:32.395Z,1008.13
2019-02-21T05:32:40.684Z,1008.17
2019-02-21T05:33:32.444Z,1008.13
2019-02-21T05:34:32.469Z,1008.15
2019-02-21T05:35:32.493Z,1008.14
2019-02-21T05:36:32.517Z,1008.12
2019-02-21T05:37:32.543Z,1008.12
2019-02-21T05:38:32.577Z,1008.07
2019-02-21T05:39:32.592Z,1008.07
2019-02-21T05:40:32.694Z,1008.07
2019-02-21T05:41:32.640Z,1008.06
2019-02-21T05:42:32.666Z,1008.03
2019-02-21T05:43:32.690Z,1008.02
2019-02-21T05:44:33.654Z,1008.06
2019-02-21T05:45:32.741Z,1008.00
2019-02-21T05:46:32.775Z,1007.98
2019-02-21T05:47:32.788Z,1008.01
2019-02-21T05:48:32.811Z,1008.01
2019-02-21T05:49:32.837Z,1008.01
2019-02-21T05:50:32.860Z,1008.01
2019-02-21T05:51:32.884Z,1007.97
2019-02-21T05:52:32.917Z,1007.98
2019-02-21T05:53:32.934Z,1007.98
2019-02-21T05:54:32.956Z,1008.00
2019-02-21T05:55:32.982Z,1008.01
2019-02-21T05:56:33.006Z,1008.02
2019-02-21T05:57:33.033Z,1008.00
2019-02-21T05:58:33.054Z,1008.04
2019-02-21T05:59:33.079Z,1007.99
2019-02-21T06:00:33.102Z,1008.00
2019-02-21T06:01:33.128Z,1007.97
2019-02-21T06:02:33.153Z,1008.04
2019-02-21T06:03:35.999Z,1008.02
2019-02-21T06:04:33.201Z,1008.01
2019-02-21T06:05:33.224Z,1008.01
2019-02-21T06:06:33.250Z,1008.04
2019-02-21T06:07:33.275Z,1008.01
2019-02-21T06:08:33.377Z,1008.03
2019-02-21T06:09:33.323Z,1008.04
2019-02-21T06:10:33.347Z,1008.04
2019-02-21T06:11:35.062Z,1008.04
2019-02-21T06:12:34.153Z,1008.04
2019-02-21T06:13:33.421Z,1008.04
2019-02-21T06:14:33.446Z,1008.05
2019-02-21T06:15:33.470Z,1008.05
2019-02-21T06:16:33.495Z,1008.04
2019-02-21T06:17:34.257Z,1008.09
2019-02-21T06:18:33.542Z,1008.08
2019-02-21T06:19:33.567Z,1008.08
2019-02-21T06:20:33.942Z,1008.05
2019-02-21T06:21:33.617Z,1008.12
2019-02-21T06:22:33.646Z,1008.15
2019-02-21T06:23:33.666Z,1008.18
2019-02-21T06:24:33.689Z,1008.13
2019-02-21T06:25:33.716Z,1008.17
2019-02-21T06:26:33.738Z,1008.16
2019-02-21T06:27:34.624Z,1008.20
2019-02-21T06:28:33.787Z,1008.23
2019-02-21T06:29:34.189Z,1008.19
2019-02-21T06:30:33.838Z,1008.18
2019-02-21T06:31:33.866Z,1008.22
2019-02-21T06:32:33.884Z,1008.24
2019-02-21T06:33:33.910Z,1008.21
2019-02-21T06:34:33.936Z,1008.19
2019-02-21T06:35:33.959Z,1008.20
2019-02-21T06:36:33.984Z,1008.25
2019-02-21T06:37:34.010Z,1008.20
2019-02-21T06:38:34.041Z,1008.26
2019-02-21T06:39:34.060Z,1008.24
2019-02-21T06:40:36.467Z,1008.23
2019-02-21T06:41:34.108Z,1008.25
2019-02-21T06:42:34.133Z,1008.27
2019-02-21T06:43:34.158Z,1008.27
2019-02-21T06:44:34.181Z,1008.27
2019-02-21T06:45:34.205Z,1008.33
2019-02-21T06:46:34.230Z,1008.33
2019-02-21T06:47:34.258Z,1008.34
2019-02-21T06:48:34.991Z,1008.38
2019-02-21T06:49:34.357Z,1008.39
2019-02-21T06:50:34.330Z,1008.35
2019-02-21T06:51:34.357Z,1008.38
2019-02-21T06:52:34.378Z,1008.35
2019-02-21T06:53:34.403Z,1008.42
2019-02-21T06:54:34.426Z,1008.40
2019-02-21T06:55:34.453Z,1008.43
2019-02-21T06:56:34.476Z,1008.46
2019-02-21T06:57:34.505Z,1008.45
2019-02-21T06:58:34.526Z,1008.46
2019-02-21T06:59:41.854Z,1008.50
2019-02-21T07:00:34.578Z,1008.54
2019-02-21T07:01:34.602Z,1008.57
2019-02-21T07:02:34.628Z,1008.55
2019-02-21T07:03:34.651Z,1008.56
2019-02-21T07:04:34.675Z,1008.58
2019-02-21T07:05:36.861Z,1008.61
2019-02-21T07:06:34.726Z,1008.62
2019-02-21T07:07:34.751Z,1008.71
2019-02-21T07:08:34.775Z,1008.74
2019-02-21T07:09:34.799Z,1008.71
2019-02-21T07:10:34.826Z,1008.77
2019-02-21T07:11:34.852Z,1008.73
2019-02-21T07:12:34.876Z,1008.73
2019-02-21T07:13:34.903Z,1008.81
2019-02-21T07:14:34.938Z,1008.79
2019-02-21T07:15:34.952Z,1008.78
2019-02-21T07:16:37.307Z,1008.75
2019-02-21T07:17:35.002Z,1008.71
2019-02-21T07:18:35.026Z,1008.72
2019-02-21T07:19:35.051Z,1008.79
2019-02-21T07:20:35.075Z,1008.80
2019-02-21T07:21:36.639Z,1008.86
2019-02-21T07:22:35.128Z,1008.86
2019-02-21T07:23:43.059Z,1008.87
2019-02-21T07:24:35.179Z,1008.86
2019-02-21T07:25:35.202Z,1008.89
2019-02-21T07:26:35.228Z,1008.86
2019-02-21T07:27:35.253Z,1008.85
2019-02-21T07:28:35.277Z,1008.96
2019-02-21T07:29:35.304Z,1008.96
2019-02-21T07:30:35.329Z,1008.99
2019-02-21T07:31:35.355Z,1008.97
2019-02-21T07:32:35.378Z,1008.97
2019-02-21T07:33:35.404Z,1008.93
2019-02-21T07:34:35.436Z,1008.93
2019-02-21T07:35:35.478Z,1008.92
2019-02-21T07:36:35.482Z,1008.88
2019-02-21T07:37:35.509Z,1008.89
2019-02-21T07:38:35.533Z,1008.88
2019-02-21T07:39:36.493Z,1008.88
2019-02-21T07:40:35.584Z,1008.86
2019-02-21T07:41:35.609Z,1008.90
2019-02-21T07:42:35.636Z,1008.91
2019-02-21T07:43:35.661Z,1008.92
2019-02-21T07:44:35.687Z,1008.93
2019-02-21T07:45:36.501Z,1008.91
2019-02-21T07:46:35.739Z,1008.94
2019-02-21T07:47:35.766Z,1008.94
2019-02-21T07:48:36.638Z,1008.94
2019-02-21T07:49:35.821Z,1008.95
2019-02-21T07:50:35.883Z,1008.97
2019-02-21T07:51:36.146Z,1008.95
2019-02-21T07:52:36.013Z,1008.90
2019-02-21T07:53:35.921Z,1008.97
2019-02-21T07:54:35.947Z,1008.97
2019-02-21T07:55:35.978Z,1009.01
2019-02-21T07:56:42.077Z,1009.04
2019-02-21T07:57:36.026Z,1009.03
2019-02-21T07:58:36.054Z,1009.00
2019-02-21T07:59:36.079Z,1008.96
2019-02-21T08:00:36.109Z,1008.98
2019-02-21T08:01:36.133Z,1008.99
2019-02-21T08:02:36.163Z,1008.96
2019-02-21T08:04:37.092Z,1008.95
2019-02-21T08:05:36.241Z,1008.96
2019-02-21T08:06:36.268Z,1009.01
2019-02-21T08:07:36.294Z,1009.05
2019-02-21T08:08:36.320Z,1009.06
2019-02-21T08:09:36.350Z,1009.09
2019-02-21T08:10:36.377Z,1009.05
2019-02-21T08:11:36.405Z,1009.09
2019-02-21T08:12:36.431Z,1009.09
2019-02-21T08:13:36.466Z,1009.08
2019-02-21T08:14:36.489Z,1009.11
2019-02-21T08:15:36.515Z,1009.07
2019-02-21T08:16:36.542Z,1009.06
2019-02-21T08:17:36.569Z,1009.08
2019-02-21T08:18:36.597Z,1009.08
2019-02-21T08:19:36.629Z,1009.07
2019-02-21T08:20:40.667Z,1009.05
2019-02-21T08:21:36.742Z,1009.09
2019-02-21T08:22:36.713Z,1009.12
2019-02-21T08:23:36.741Z,1009.13
2019-02-21T08:24:36.769Z,1009.15
2019-02-21T08:25:36.855Z,1009.13
2019-02-21T08:26:36.827Z,1009.19
2019-02-21T08:27:36.858Z,1009.23
2019-02-21T08:28:36.887Z,1009.21
2019-02-21T08:29:36.916Z,1009.27
2019-02-21T08:30:36.948Z,1009.29
2019-02-21T08:31:36.976Z,1009.25
2019-02-21T08:32:37.006Z,1009.28
2019-02-21T08:33:37.036Z,1009.34
2019-02-21T08:34:37.066Z,1009.27
2019-02-21T08:35:37.098Z,1009.26
2019-02-21T08:36:37.148Z,1009.30
2019-02-21T08:37:37.158Z,1009.25
2019-02-21T08:38:37.189Z,1009.21
2019-02-21T08:39:37.220Z,1009.21
2019-02-21T08:40:37.250Z,1009.22
2019-02-21T08:41:37.279Z,1009.21
2019-02-21T08:42:37.311Z,1009.23
2019-02-21T08:43:37.456Z,1009.24
2019-02-21T08:44:37.374Z,1009.26
2019-02-21T08:45:37.407Z,1009.30
2019-02-21T08:46:37.439Z,1009.28
2019-02-21T08:47:37.471Z,1009.29
2019-02-21T08:48:40.295Z,1009.27
2019-02-21T08:49:37.533Z,1009.27
2019-02-21T08:50:37.566Z,1009.25
2019-02-21T08:51:37.600Z,1009.19
2019-02-21T08:52:37.631Z,1009.21
2019-02-21T08:53:37.663Z,1009.27
2019-02-21T08:54:37.710Z,1009.25
2019-02-21T08:55:40.307Z,1009.25
2019-02-21T08:56:37.762Z,1009.27
2019-02-21T08:57:37.794Z,1009.22
2019-02-21T08:58:37.828Z,1009.26
2019-02-21T08:59:37.863Z,1009.28
2019-02-21T09:00:37.895Z,1009.31
2019-02-21T09:01:37.971Z,1009.24
2019-02-21T09:02:37.964Z,1009.30
2019-02-21T09:03:37.996Z,1009.35
2019-02-21T09:04:38.036Z,1009.29
2019-02-21T09:05:38.064Z,1009.33
2019-02-21T09:06:38.103Z,1009.37
2019-02-21T09:07:38.198Z,1009.36
2019-02-21T09:08:38.167Z,1009.32
2019-02-21T09:09:38.207Z,1009.35
2019-02-21T09:10:38.239Z,1009.36
2019-02-21T09:11:38.274Z,1009.33
2019-02-21T09:12:38.307Z,1009.37
2019-02-21T09:13:38.343Z,1009.42
2019-02-21T09:14:38.404Z,1009.41
2019-02-21T09:17:22.289Z,1009.49
2019-02-21T09:18:22.318Z,1009.49
2019-02-21T09:19:22.346Z,1009.50
2019-02-21T09:20:22.381Z,1009.51
2019-02-21T09:21:22.418Z,1009.52
2019-02-21T09:22:22.454Z,1009.53
2019-02-21T09:23:22.491Z,1009.55
2019-02-21T09:24:37.699Z,1009.54
2019-02-21T09:25:22.564Z,1009.56
2019-02-21T09:26:22.602Z,1009.51
2019-02-21T09:27:22.637Z,1009.52
2019-02-21T09:28:22.680Z,1009.55
2019-02-21T09:29:22.713Z,1009.51
2019-02-21T09:30:22.749Z,1009.56
2019-02-21T09:31:22.787Z,1009.56
2019-02-21T09:32:22.824Z,1009.56
2019-02-21T09:33:22.861Z,1009.56
2019-02-21T09:34:22.900Z,1009.61
2019-02-21T09:35:22.938Z,1009.57
2019-02-21T09:36:22.979Z,1009.59
2019-02-21T09:37:23.013Z,1009.59
2019-02-21T09:38:23.055Z,1009.62
2019-02-21T09:39:23.157Z,1009.62
2019-02-21T09:40:23.132Z,1009.65
2019-02-21T09:41:23.222Z,1009.66
2019-02-21T09:42:23.211Z,1009.67
2019-02-21T09:43:23.246Z,1009.71
2019-02-21T09:44:27.223Z,1009.72
2019-02-21T09:45:23.324Z,1009.69
2019-02-21T09:46:23.415Z,1009.73
2019-02-21T09:47:23.402Z,1009.73
2019-02-21T09:48:23.441Z,1009.70
2019-02-21T09:49:23.482Z,1009.72
2019-02-21T09:50:23.522Z,1009.65
2019-02-21T09:51:23.561Z,1009.64
2019-02-21T09:52:23.603Z,1009.62
2019-02-21T09:53:23.641Z,1009.65
2019-02-21T09:54:24.221Z,1009.59
2019-02-21T09:55:23.761Z,1009.60
2019-02-21T09:56:30.423Z,1009.61
2019-02-21T09:57:23.804Z,1009.57
2019-02-21T09:58:23.848Z,1009.56
2019-02-21T09:59:23.885Z,1009.57
2019-02-21T10:00:23.957Z,1009.59
2019-02-21T10:01:23.969Z,1009.60
2019-02-21T10:02:24.011Z,1009.57
2019-02-21T10:03:24.060Z,1009.52
2019-02-21T10:04:31.884Z,1009.58
2019-02-21T10:05:24.138Z,1009.56
2019-02-21T10:06:24.179Z,1009.59
2019-02-21T10:07:24.220Z,1009.59
2019-02-21T10:08:24.261Z,1009.63
2019-02-21T10:09:24.304Z,1009.65
2019-02-21T10:10:24.347Z,1009.68
2019-02-21T10:11:24.389Z,1009.64
2019-02-21T10:12:24.433Z,1009.67
2019-02-21T10:13:24.473Z,1009.64
2019-02-21T10:14:24.519Z,1009.68
2019-02-21T10:15:24.559Z,1009.67
2019-02-21T10:16:24.603Z,1009.69
2019-02-21T10:17:24.647Z,1009.70
2019-02-21T10:18:24.690Z,1009.68
2019-02-21T10:19:24.732Z,1009.71
2019-02-21T10:20:24.790Z,1009.69
2019-02-21T10:21:24.842Z,1009.69
2019-02-21T10:22:26.138Z,1009.70
2019-02-21T10:23:24.905Z,1009.63
2019-02-21T10:24:24.950Z,1009.64
2019-02-21T10:25:24.994Z,1009.65
2019-02-21T10:26:25.038Z,1009.64
2019-02-21T10:27:25.082Z,1009.65
2019-02-21T10:28:25.125Z,1009.72
2019-02-21T10:29:25.170Z,1009.69
2019-02-21T10:31:25.285Z,1009.73
2019-02-21T10:32:25.303Z,1009.73
2019-02-21T10:33:28.981Z,1009.75
2019-02-21T10:34:25.391Z,1009.77
2019-02-21T10:35:25.435Z,1009.76
2019-02-21T10:36:25.479Z,1009.77
2019-02-21T10:37:25.524Z,1009.80
2019-02-21T10:38:25.569Z,1009.79
2019-02-21T10:39:25.613Z,1009.78
2019-02-21T10:40:25.666Z,1009.82
2019-02-21T10:41:25.707Z,1009.79
2019-02-21T10:42:25.750Z,1009.78
2019-02-21T10:43:25.793Z,1009.78
2019-02-21T10:44:25.837Z,1009.82
2019-02-21T10:45:25.885Z,1009.80
2019-02-21T10:46:25.929Z,1009.83
2019-02-21T10:47:25.974Z,1009.84
2019-02-21T10:48:26.020Z,1009.88
2019-02-21T10:49:26.066Z,1009.86
2019-02-21T10:50:26.115Z,1009.91
2019-02-21T10:51:26.157Z,1009.89
2019-02-21T10:52:26.210Z,1009.87
2019-02-21T10:53:26.248Z,1009.85
2019-02-21T10:54:26.297Z,1009.87
2019-02-21T10:55:26.341Z,1009.87
2019-02-21T10:56:26.424Z,1009.89
2019-02-21T10:57:26.432Z,1009.83
2019-02-21T10:58:26.479Z,1009.82
2019-02-21T10:59:26.525Z,1009.85
2019-02-21T11:00:26.570Z,1009.87
2019-02-21T11:01:26.617Z,1009.87
2019-02-21T11:02:26.663Z,1009.87
2019-02-21T11:03:26.712Z,1009.81
2019-02-21T11:04:26.755Z,1009.82
2019-02-21T11:05:27.035Z,1009.83
2019-02-21T11:06:26.899Z,1009.81
2019-02-21T11:07:26.894Z,1009.80
2019-02-21T11:08:26.940Z,1009.82
2019-02-21T11:09:29.608Z,1009.83
2019-02-21T11:10:27.035Z,1009.82
2019-02-21T11:11:27.081Z,1009.83
2019-02-21T11:12:27.126Z,1009.83
2019-02-21T11:13:27.245Z,1009.85
2019-02-21T11:14:27.220Z,1009.79
2019-02-21T11:15:27.265Z,1009.78
2019-02-21T11:16:27.311Z,1009.82
2019-02-21T11:17:27.359Z,1009.86
2019-02-21T11:18:27.406Z,1009.84
2019-02-21T11:19:27.452Z,1009.87
2019-02-21T11:20:27.499Z,1009.83
2019-02-21T11:21:27.550Z,1009.86
2019-02-21T11:22:27.594Z,1009.86
2019-02-21T11:23:27.639Z,1009.83
2019-02-21T11:24:27.686Z,1009.84
2019-02-21T11:25:27.734Z,1009.83
2019-02-21T11:26:27.781Z,1009.85
2019-02-21T11:27:27.827Z,1009.84
2019-02-21T11:28:27.874Z,1009.85
2019-02-21T11:29:27.924Z,1009.89
2019-02-21T11:30:27.972Z,1009.86
2019-02-21T11:31:28.080Z,1009.83
2019-02-21T11:32:28.064Z,1009.83
2019-02-21T11:33:28.111Z,1009.87
2019-02-21T11:34:28.158Z,1009.85
2019-02-21T11:35:28.206Z,1009.88
2019-02-21T11:36:28.251Z,1009.92
2019-02-21T11:37:28.304Z,1009.89
2019-02-21T11:38:28.348Z,1009.84
2019-02-21T11:39:28.394Z,1009.86
2019-02-21T11:40:28.444Z,1009.88
2019-02-21T11:41:28.488Z,1009.87
2019-02-21T11:42:28.536Z,1009.87
2019-02-21T11:43:28.582Z,1009.85
2019-02-21T11:44:28.631Z,1009.88
2019-02-21T11:45:28.684Z,1009.92
2019-02-21T11:46:28.725Z,1009.98
2019-02-21T11:47:28.773Z,1009.97
2019-02-21T11:48:28.821Z,1009.87
2019-02-21T11:49:28.869Z,1009.90
2019-02-21T11:50:28.915Z,1009.88
2019-02-21T11:51:28.963Z,1009.90
2019-02-21T11:52:29.012Z,1009.90
2019-02-21T11:53:29.058Z,1009.89
2019-02-21T11:54:29.108Z,1009.89
2019-02-21T11:55:29.154Z,1009.89
2019-02-21T11:56:29.201Z,1009.94
2019-02-21T11:57:29.251Z,1009.92
2019-02-21T11:58:29.347Z,1009.94
2019-02-21T11:59:29.345Z,1009.96
2019-02-21T12:00:29.394Z,1009.97
2019-02-21T12:01:29.442Z,1009.96
2019-02-21T12:02:38.615Z,1009.97
2019-02-21T12:03:29.554Z,1009.98
2019-02-21T12:04:29.585Z,1009.97
2019-02-21T12:05:31.909Z,1009.98
2019-02-21T12:06:29.682Z,1009.99
2019-02-21T12:07:29.728Z,1009.95
2019-02-21T12:08:29.826Z,1010.03
2019-02-21T12:09:29.826Z,1010.02
2019-02-21T12:10:29.878Z,1010.06
2019-02-21T12:11:29.922Z,1010.05
2019-02-21T12:12:30.771Z,1010.02
2019-02-21T12:13:30.018Z,1010.08
2019-02-21T12:14:30.067Z,1010.08
2019-02-21T12:15:30.115Z,1010.05
2019-02-21T12:16:30.249Z,1010.03
2019-02-21T12:17:30.213Z,1010.04